Time;durP1;ratioP1;P1;durP2;ratioP2;P2;SDS_P1;SDS_P2;PMS_P1;PMS_P2;Temp;Humidity;BMP_temperature;BMP_pressure;BME280_temperature;BME280_humidity;BME280_pressure;Samples;Min_cycle;Max_cycle;Signal;HPM_P1;HPM_P2
2023/09/01 00:01:48;;;;;;;8.07;4.68;;;16.00;99.90;;;;;;6254479;28;20076;-78
2023/09/01 00:04:49;;;;;;;10.40;4.75;;;16.00;99.90;;;;;;6254617;28;20041;-80
2023/09/01 00:07:51;;;;;;;7.22;4.60;;;15.90;99.90;;;;;;6251965;28;20060;-79
2023/09/01 00:10:53;;;;;;;9.90;5.32;;;15.90;99.90;;;;;;6253748;28;20056;-80
2023/09/01 00:13:56;;;;;;;7.05;4.25;;;15.90;99.90;;;;;;6254659;28;20046;-78
2023/09/01 00:16:57;;;;;;;18.98;5.50;;;15.90;99.90;;;;;;6255796;28;20057;-79
2023/09/01 00:19:59;;;;;;;6.78;4.97;;;15.80;99.90;;;;;;6256008;28;20412;-78
2023/09/01 00:23:01;;;;;;;5.97;4.90;;;15.80;99.90;;;;;;6257389;28;20056;-77
2023/09/01 00:26:03;;;;;;;10.82;5.00;;;15.80;99.90;;;;;;6235087;28;20050;-80
2023/09/01 00:29:06;;;;;;;5.65;4.45;;;15.80;99.90;;;;;;6234354;28;20068;-79
2023/09/01 00:32:08;;;;;;;11.35;5.93;;;15.80;99.90;;;;;;6234872;28;20050;-79
2023/09/01 00:35:09;;;;;;;6.47;4.68;;;15.70;99.90;;;;;;6231446;28;20068;-78
2023/09/01 00:38:11;;;;;;;7.38;5.15;;;15.60;99.90;;;;;;6233264;28;20050;-80
2023/09/01 00:41:12;;;;;;;15.35;6.20;;;15.60;99.90;;;;;;6235147;28;20046;-80
2023/09/01 00:44:15;;;;;;;8.77;5.57;;;15.50;99.90;;;;;;6233450;28;20046;-80
2023/09/01 00:47:17;;;;;;;10.25;6.82;;;15.50;99.90;;;;;;6232303;28;20046;-79
2023/09/01 00:50:19;;;;;;;8.13;6.47;;;15.40;99.90;;;;;;6231601;28;20050;-80
2023/09/01 00:53:23;;;;;;;8.73;5.25;;;15.40;99.90;;;;;;6237339;28;20049;-79
2023/09/01 00:56:25;;;;;;;12.77;5.85;;;15.40;99.90;;;;;;6235175;28;20042;-79
2023/09/01 00:59:28;;;;;;;11.50;6.05;;;15.40;99.90;;;;;;6234608;28;20053;-79
2023/09/01 01:02:30;;;;;;;8.60;5.82;;;15.50;99.90;;;;;;6235611;28;20050;-80
2023/09/01 01:05:47;;;;;;;6.85;4.72;;;15.40;99.90;;;;;;6234922;28;20054;-79
2023/09/01 01:09:03;;;;;;;10.15;6.00;;;15.40;99.90;;;;;;6232539;28;20041;-78
2023/09/01 01:12:12;;;;;;;6.47;5.43;;;15.40;99.90;;;;;;6235219;28;20607;-81
2023/09/01 01:15:16;;;;;;;17.15;6.28;;;15.50;99.90;;;;;;6237005;28;20417;-80
2023/09/01 01:18:19;;;;;;;13.45;5.32;;;15.50;99.90;;;;;;6234725;28;20050;-81
2023/09/01 01:21:24;;;;;;;8.07;5.20;;;15.60;99.90;;;;;;6235104;28;20069;-79
2023/09/01 01:24:28;;;;;;;9.15;5.57;;;15.60;99.90;;;;;;6236071;28;20133;-80
2023/09/01 01:27:29;;;;;;;6.43;4.72;;;15.60;99.90;;;;;;6234568;28;20054;-78
2023/09/01 01:30:31;;;;;;;6.75;4.72;;;15.70;99.90;;;;;;6233317;28;20049;-80
2023/09/01 01:33:42;;;;;;;6.22;5.00;;;15.70;99.90;;;;;;6233804;28;20048;-79
2023/09/01 01:36:50;;;;;;;13.60;5.82;;;15.70;99.90;;;;;;6231959;28;20489;-79
2023/09/01 01:39:55;;;;;;;9.63;5.97;;;15.80;99.90;;;;;;6231187;28;20060;-80
2023/09/01 01:43:01;;;;;;;7.32;4.18;;;15.80;99.90;;;;;;6232444;28;20050;-81
2023/09/01 01:46:04;;;;;;;7.68;4.68;;;15.90;99.90;;;;;;6254342;28;20045;-79
2023/09/01 01:49:09;;;;;;;6.45;4.68;;;15.90;99.90;;;;;;6257236;28;20054;-80
2023/09/01 01:52:11;;;;;;;6.43;4.40;;;15.90;99.90;;;;;;6257487;28;20049;-81
2023/09/01 01:55:14;;;;;;;6.65;4.28;;;15.90;99.90;;;;;;6257279;28;20052;-80
2023/09/01 01:58:15;;;;;;;6.50;4.68;;;15.90;99.90;;;;;;6255685;28;20408;-79
2023/09/01 02:01:17;;;;;;;11.55;4.55;;;16.00;99.90;;;;;;6254997;28;20521;-79
2023/09/01 02:04:19;;;;;;;6.03;4.68;;;16.00;99.90;;;;;;6256000;28;20057;-80
2023/09/01 02:07:20;;;;;;;9.18;4.10;;;16.00;99.90;;;;;;6257402;28;20306;-79
2023/09/01 02:10:23;;;;;;;7.10;4.68;;;16.00;99.90;;;;;;6255281;28;20041;-80
2023/09/01 02:13:25;;;;;;;6.78;4.47;;;16.00;99.90;;;;;;6255959;28;20046;-79
2023/09/01 02:16:27;;;;;;;7.05;4.78;;;16.00;99.90;;;;;;6255634;28;20041;-79
2023/09/01 02:19:29;;;;;;;5.20;4.18;;;16.00;99.90;;;;;;6255300;28;20519;-80
2023/09/01 02:22:30;;;;;;;10.15;4.22;;;16.00;99.90;;;;;;6253950;28;20148;-79
2023/09/01 02:25:38;;;;;;;4.82;4.10;;;15.90;99.90;;;;;;6256047;28;20060;-78
2023/09/01 02:28:39;;;;;;;5.43;4.78;;;15.80;99.90;;;;;;6256683;28;20059;-80
2023/09/01 02:31:41;;;;;;;6.97;4.45;;;15.90;99.90;;;;;;6257120;28;20049;-80
2023/09/01 02:34:43;;;;;;;7.75;3.95;;;16.00;99.90;;;;;;6255919;28;20037;-80
2023/09/01 02:37:45;;;;;;;7.00;4.03;;;16.00;99.90;;;;;;6254780;28;20041;-80
2023/09/01 02:40:48;;;;;;;7.18;4.55;;;16.00;99.90;;;;;;6257282;28;20053;-80
2023/09/01 02:43:50;;;;;;;5.40;4.85;;;16.00;99.90;;;;;;6256298;28;20050;-79
2023/09/01 02:46:52;;;;;;;6.05;3.13;;;16.10;99.90;;;;;;6255278;28;20045;-80
2023/09/01 02:49:53;;;;;;;4.55;4.10;;;16.10;99.90;;;;;;6255618;28;20049;-80
2023/09/01 02:52:56;;;;;;;5.65;4.25;;;16.10;99.90;;;;;;6255211;28;20069;-79
2023/09/01 02:55:59;;;;;;;7.47;3.90;;;16.20;99.90;;;;;;6255963;28;20076;-79
2023/09/01 02:59:01;;;;;;;5.72;3.88;;;16.20;99.90;;;;;;6255912;28;20056;-80
2023/09/01 03:02:03;;;;;;;5.10;3.38;;;16.20;99.90;;;;;;6256347;28;20049;-80
2023/09/01 03:05:05;;;;;;;6.85;3.17;;;16.20;99.90;;;;;;6255924;28;20045;-80
2023/09/01 03:08:07;;;;;;;7.20;3.95;;;16.20;99.90;;;;;;6254547;28;20053;-79
2023/09/01 03:11:10;;;;;;;6.55;3.70;;;16.30;99.90;;;;;;6255248;28;20416;-79
2023/09/01 03:14:12;;;;;;;5.95;3.90;;;16.30;99.90;;;;;;6255831;28;20053;-80
2023/09/01 03:17:13;;;;;;;5.95;3.55;;;16.30;99.90;;;;;;6257599;28;20053;-80
2023/09/01 03:20:15;;;;;;;6.45;3.47;;;16.20;99.90;;;;;;6256442;28;20053;-80
2023/09/01 03:23:17;;;;;;;5.05;4.03;;;16.30;99.90;;;;;;6257250;28;20073;-79
2023/09/01 03:26:22;;;;;;;5.28;4.43;;;16.40;99.90;;;;;;6259436;28;20161;-80
2023/09/01 03:29:23;;;;;;;5.97;3.67;;;16.30;99.90;;;;;;6257487;28;20045;-79
2023/09/01 03:32:25;;;;;;;4.70;3.03;;;16.40;99.90;;;;;;6257035;28;20047;-78
2023/09/01 03:35:27;;;;;;;3.28;2.92;;;16.40;99.90;;;;;;6256064;28;20049;-80
2023/09/01 03:38:28;;;;;;;7.18;3.30;;;16.50;99.90;;;;;;6257009;28;20129;-80
2023/09/01 03:41:31;;;;;;;5.55;3.03;;;16.50;99.90;;;;;;6256200;28;20046;-80
2023/09/01 03:44:33;;;;;;;5.38;3.00;;;16.60;99.90;;;;;;6256446;28;20065;-80
2023/09/01 03:47:35;;;;;;;5.35;2.47;;;16.60;99.90;;;;;;6258810;28;20053;-79
2023/09/01 03:50:36;;;;;;;7.90;2.97;;;16.60;99.90;;;;;;6258108;28;20119;-80
2023/09/01 03:53:38;;;;;;;3.30;2.85;;;16.70;99.90;;;;;;6261030;28;20052;-79
2023/09/01 03:56:41;;;;;;;3.58;2.97;;;16.70;99.90;;;;;;6258332;28;20504;-80
2023/09/01 03:59:44;;;;;;;4.00;3.03;;;16.70;99.90;;;;;;6256969;28;20059;-80
2023/09/01 04:02:46;;;;;;;4.30;3.83;;;16.80;99.90;;;;;;6260386;28;20045;-79
2023/09/01 04:05:47;;;;;;;3.90;1.60;;;16.80;99.90;;;;;;6260321;28;20056;-80
2023/09/01 04:08:49;;;;;;;5.20;2.08;;;16.80;99.90;;;;;;6258690;28;20049;-79
2023/09/01 04:11:52;;;;;;;1.85;1.73;;;16.90;99.90;;;;;;6261987;28;20055;-79
2023/09/01 04:14:54;;;;;;;3.40;2.35;;;16.90;99.90;;;;;;6262323;28;20056;-80
2023/09/01 04:17:55;;;;;;;3.38;2.17;;;17.00;99.90;;;;;;6260887;28;20042;-80
2023/09/01 04:20:57;;;;;;;4.47;2.10;;;17.00;99.90;;;;;;6260846;28;20041;-79
2023/09/01 04:23:59;;;;;;;5.20;2.08;;;17.10;99.90;;;;;;6260671;28;20409;-80
2023/09/01 04:27:02;;;;;;;3.47;2.00;;;17.10;99.90;;;;;;6259125;28;20049;-79
2023/09/01 04:30:05;;;;;;;8.23;1.85;;;17.20;99.90;;;;;;6260167;28;20474;-78
2023/09/01 04:33:07;;;;;;;3.97;2.10;;;17.20;99.90;;;;;;6260802;28;20137;-78
2023/09/01 04:36:09;;;;;;;3.05;1.90;;;17.10;99.90;;;;;;6259353;28;20042;-79
2023/09/01 04:39:12;;;;;;;4.10;2.47;;;17.20;99.90;;;;;;6258982;28;20056;-79
2023/09/01 04:42:15;;;;;;;5.10;1.63;;;17.20;99.90;;;;;;6257840;28;20050;-78
2023/09/01 04:45:17;;;;;;;5.00;2.20;;;17.30;99.90;;;;;;6258040;28;20041;-79
2023/09/01 04:48:19;;;;;;;2.58;1.92;;;17.20;99.90;;;;;;6258170;28;20049;-78
2023/09/01 04:51:21;;;;;;;5.50;1.98;;;17.30;99.90;;;;;;6259951;28;20113;-79
2023/09/01 04:54:23;;;;;;;2.80;1.40;;;17.30;99.90;;;;;;6259793;28;20107;-80
2023/09/01 04:57:26;;;;;;;2.58;1.80;;;17.30;99.90;;;;;;6257663;28;20045;-78
2023/09/01 05:00:27;;;;;;;2.40;1.80;;;17.30;99.90;;;;;;6258091;28;20416;-79
2023/09/01 05:03:29;;;;;;;4.25;1.98;;;17.30;99.90;;;;;;6257816;28;20045;-79
2023/09/01 05:06:31;;;;;;;3.72;1.48;;;17.30;99.90;;;;;;6262995;28;20050;-79
2023/09/01 05:09:33;;;;;;;4.97;1.63;;;17.20;99.90;;;;;;6261158;28;20057;-80
2023/09/01 05:12:36;;;;;;;1.75;1.48;;;17.20;99.90;;;;;;6261476;28;20041;-80
2023/09/01 05:15:38;;;;;;;1.50;1.25;;;17.00;99.90;;;;;;6262362;28;20054;-80
2023/09/01 05:18:39;;;;;;;1.60;1.50;;;17.00;99.90;;;;;;6261109;28;20051;-80
2023/09/01 05:21:41;;;;;;;3.22;2.15;;;16.90;99.90;;;;;;6262382;28;20061;-79
2023/09/01 05:24:43;;;;;;;2.92;2.15;;;17.00;99.90;;;;;;6263374;28;20037;-79
2023/09/01 05:27:46;;;;;;;3.88;1.80;;;16.90;99.90;;;;;;6262691;28;20424;-80
2023/09/01 05:30:48;;;;;;;3.97;2.30;;;17.00;99.90;;;;;;6262593;28;20053;-80
2023/09/01 05:33:50;;;;;;;2.50;1.70;;;17.00;99.90;;;;;;6264603;28;20049;-81
2023/09/01 05:36:51;;;;;;;2.13;1.80;;;17.00;99.90;;;;;;6262255;28;20045;-80
2023/09/01 05:39:54;;;;;;;5.35;2.03;;;17.00;99.90;;;;;;6260508;28;20053;-79
2023/09/01 05:42:57;;;;;;;3.33;1.67;;;17.00;99.90;;;;;;6261691;28;20045;-80
2023/09/01 05:45:59;;;;;;;5.30;2.03;;;17.00;99.90;;;;;;6261347;28;20041;-79
2023/09/01 05:49:01;;;;;;;2.35;1.80;;;17.00;99.90;;;;;;6262096;28;20049;-79
2023/09/01 05:52:03;;;;;;;3.30;2.30;;;17.10;99.90;;;;;;6263228;28;20049;-79
2023/09/01 05:55:05;;;;;;;3.47;1.92;;;17.10;99.90;;;;;;6263763;28;20042;-79
2023/09/01 05:58:08;;;;;;;3.13;1.75;;;17.10;99.90;;;;;;6263113;28;20374;-80
2023/09/01 06:01:10;;;;;;;2.08;1.73;;;17.20;99.90;;;;;;6264504;28;20046;-80
2023/09/01 06:04:12;;;;;;;4.65;1.58;;;17.20;99.90;;;;;;6263480;28;20060;-81
2023/09/01 06:07:13;;;;;;;3.67;1.40;;;17.30;99.90;;;;;;6264110;28;20060;-80
2023/09/01 06:10:15;;;;;;;7.95;1.70;;;17.40;99.90;;;;;;6262789;28;20053;-80
2023/09/01 06:13:18;;;;;;;1.88;1.35;;;17.40;99.90;;;;;;6262472;28;20049;-80
2023/09/01 06:16:20;;;;;;;4.45;1.80;;;17.40;99.90;;;;;;6260627;28;20049;-80
2023/09/01 06:19:22;;;;;;;2.00;1.90;;;17.50;99.90;;;;;;6260268;28;20059;-80
2023/09/01 06:22:23;;;;;;;4.28;3.50;;;17.50;99.90;;;;;;6260783;28;20072;-81
2023/09/01 06:25:25;;;;;;;2.03;1.42;;;17.60;99.90;;;;;;6260412;28;20045;-80
2023/09/01 06:28:28;;;;;;;4.13;1.60;;;17.70;99.90;;;;;;6259144;28;20048;-79
2023/09/01 06:31:30;;;;;;;3.00;1.00;;;17.90;99.90;;;;;;6259450;28;20081;-81
2023/09/01 06:34:31;;;;;;;1.55;1.17;;;18.20;99.90;;;;;;6257948;28;20045;-80
2023/09/01 06:37:33;;;;;;;1.67;1.58;;;18.30;99.90;;;;;;6259435;28;20054;-80
2023/09/01 06:40:35;;;;;;;2.40;1.58;;;18.30;99.90;;;;;;6260850;28;20416;-81
2023/09/01 06:43:38;;;;;;;2.83;1.30;;;18.30;99.90;;;;;;6259733;28;20535;-80
2023/09/01 06:46:40;;;;;;;2.00;1.20;;;18.20;99.90;;;;;;6257115;28;20049;-80
2023/09/01 06:49:41;;;;;;;2.30;1.02;;;18.30;99.90;;;;;;6257199;28;20072;-80
2023/09/01 06:52:43;;;;;;;1.38;1.27;;;18.40;99.90;;;;;;6259914;28;20048;-79
2023/09/01 06:55:46;;;;;;;2.58;0.85;;;18.40;99.90;;;;;;6259034;28;20044;-81
2023/09/01 06:58:49;;;;;;;1.25;1.02;;;18.40;99.90;;;;;;6257683;28;20049;-80
2023/09/01 07:01:51;;;;;;;2.25;0.80;;;18.40;99.90;;;;;;6249468;28;20137;-81
2023/09/01 07:04:52;;;;;;;1.17;0.77;;;18.60;99.90;;;;;;6249584;28;20045;-81
2023/09/01 07:07:54;;;;;;;3.70;1.02;;;18.70;99.90;;;;;;6212804;28;20053;-80
2023/09/01 07:11:22;;;;;;;1.25;1.02;;;18.80;99.90;;;;;;6253659;28;20045;-80
2023/09/01 07:14:26;;;;;;;1.35;0.80;;;18.80;99.90;;;;;;6246583;28;20049;-81
2023/09/01 07:17:28;;;;;;;2.13;1.05;;;19.00;99.90;;;;;;6248412;28;20046;-80
2023/09/01 07:20:29;;;;;;;2.60;1.17;;;19.10;99.90;;;;;;6237869;28;20045;-81
2023/09/01 07:23:31;;;;;;;1.80;1.08;;;19.30;99.90;;;;;;6250075;28;20053;-80
2023/09/01 07:26:33;;;;;;;1.48;1.15;;;19.30;99.90;;;;;;6247860;28;20416;-82
2023/09/01 07:29:36;;;;;;;2.50;1.30;;;19.50;99.90;;;;;;6247956;28;20045;-81
2023/09/01 07:32:38;;;;;;;1.73;1.20;;;19.60;99.90;;;;;;6248850;28;20275;-81
2023/09/01 07:35:44;;;;;;;2.72;1.10;;;19.70;99.90;;;;;;6247157;28;20049;-82
2023/09/01 07:38:46;;;;;;;1.38;1.27;;;19.70;99.90;;;;;;6249947;28;20041;-79
2023/09/01 07:41:48;;;;;;;2.28;1.40;;;19.70;99.90;;;;;;6249604;28;20042;-82
2023/09/01 07:44:51;;;;;;;3.55;1.33;;;19.60;99.90;;;;;;6250566;28;20045;-81
2023/09/01 07:47:53;;;;;;;2.30;1.23;;;19.50;99.90;;;;;;6251195;28;20062;-79
2023/09/01 07:50:55;;;;;;;1.85;1.10;;;19.70;99.90;;;;;;6251665;28;20053;-81
2023/09/01 07:53:56;;;;;;;2.95;1.38;;;19.80;99.90;;;;;;6254210;28;20046;-82
2023/09/01 07:56:58;;;;;;;1.42;1.10;;;19.90;99.90;;;;;;6251191;28;20091;-83
2023/09/01 08:00:05;;;;;;;0.88;0.88;;;19.90;99.90;;;;;;6252354;28;20050;-81
2023/09/01 08:03:10;;;;;;;2.33;1.53;;;20.00;99.90;;;;;;6255874;28;20139;-80
2023/09/01 08:09:34;;;;;;;3.42;1.73;;;20.10;99.90;;;;;;6231993;28;20496;-79
2023/09/01 08:12:36;;;;;;;1.88;1.15;;;20.30;99.90;;;;;;6252597;28;20423;-81
2023/09/01 08:15:46;;;;;;;2.40;1.38;;;20.40;99.90;;;;;;6255410;28;20523;-82
2023/09/01 08:18:48;;;;;;;1.08;0.98;;;20.50;99.90;;;;;;6256181;28;20045;-77
2023/09/01 08:21:49;;;;;;;2.50;1.05;;;20.80;99.90;;;;;;6250440;28;20057;-80
2023/09/01 08:24:51;;;;;;;0.95;0.60;;;20.90;99.90;;;;;;6250038;28;20049;-80
2023/09/01 08:27:53;;;;;;;3.08;0.90;;;20.80;99.90;;;;;;6248862;28;20059;-79
2023/09/01 08:31:01;;;;;;;3.17;1.10;;;20.70;99.90;;;;;;6239831;28;20076;-78
2023/09/01 08:34:03;;;;;;;2.15;1.27;;;20.60;99.90;;;;;;6249660;28;20484;-79
2023/09/01 08:37:05;;;;;;;1.42;0.85;;;20.70;99.90;;;;;;6248718;28;20045;-78
2023/09/01 08:40:10;;;;;;;1.77;0.90;;;20.90;99.90;;;;;;6245013;28;20053;-78
2023/09/01 08:43:13;;;;;;;4.57;1.00;;;21.10;99.90;;;;;;6252930;28;20455;-79
2023/09/01 08:46:22;;;;;;;1.08;0.98;;;21.10;99.90;;;;;;6252682;28;20045;-78
2023/09/01 08:49:25;;;;;;;2.00;0.75;;;21.30;99.90;;;;;;6254132;28;20092;-77
2023/09/01 08:52:27;;;;;;;0.93;0.80;;;21.30;99.90;;;;;;6251975;28;20164;-79
2023/09/01 08:55:29;;;;;;;1.63;0.75;;;21.40;99.90;;;;;;6252700;28;20053;-77
2023/09/01 08:58:31;;;;;;;2.90;1.00;;;21.40;99.90;;;;;;6248428;28;20048;-79
2023/09/01 09:01:35;;;;;;;1.67;0.82;;;21.20;99.90;;;;;;6252188;28;20056;-78
2023/09/01 09:04:37;;;;;;;1.40;1.02;;;21.20;99.90;;;;;;6241359;28;20088;-79
2023/09/01 09:07:39;;;;;;;1.15;0.82;;;21.20;99.90;;;;;;6252684;28;20068;-79
2023/09/01 09:10:42;;;;;;;2.33;0.85;;;21.10;99.90;;;;;;6250759;28;20044;-79
2023/09/01 09:13:47;;;;;;;3.22;1.15;;;21.10;99.90;;;;;;6258604;28;20041;-78
2023/09/01 09:16:54;;;;;;;4.10;0.60;;;21.10;99.90;;;;;;6252250;28;20037;-79
2023/09/01 09:19:59;;;;;;;2.83;1.58;;;21.30;99.90;;;;;;6252776;28;20061;-79
2023/09/01 09:23:01;;;;;;;0.95;0.68;;;21.40;99.90;;;;;;6254155;28;20496;-79
2023/09/01 09:26:03;;;;;;;6.35;2.67;;;21.50;99.90;;;;;;6252263;28;20460;-79
2023/09/01 09:29:07;;;;;;;1.73;1.05;;;21.50;99.90;;;;;;6253739;28;20049;-79
2023/09/01 09:32:23;;;;;;;0.68;0.50;;;21.40;99.90;;;;;;6254880;28;20402;-79
2023/09/01 09:35:26;;;;;;;1.42;0.93;;;21.50;99.90;;;;;;6253989;28;20092;-79
2023/09/01 09:38:40;;;;;;;1.10;0.80;;;21.70;99.90;;;;;;6252496;28;20049;-79
2023/09/01 09:41:46;;;;;;;1.75;0.80;;;21.80;99.90;;;;;;6245805;28;20041;-79
2023/09/01 09:44:49;;;;;;;3.05;1.02;;;21.90;99.90;;;;;;6252952;28;20049;-77
2023/09/01 09:47:52;;;;;;;1.02;0.77;;;21.90;99.90;;;;;;6248295;28;20049;-77
2023/09/01 09:50:56;;;;;;;2.15;1.10;;;22.10;99.90;;;;;;6247779;28;20045;-78
2023/09/01 09:53:59;;;;;;;2.17;0.73;;;22.20;99.90;;;;;;6249480;28;20052;-78
2023/09/01 09:57:07;;;;;;;1.23;0.88;;;22.20;99.90;;;;;;6248800;28;20045;-78
2023/09/01 10:00:10;;;;;;;1.00;0.80;;;22.30;99.90;;;;;;6247816;28;20045;-77
2023/09/01 10:03:14;;;;;;;2.75;0.90;;;22.30;99.90;;;;;;6249655;28;20385;-77
2023/09/01 10:06:17;;;;;;;1.23;0.82;;;22.40;99.90;;;;;;6249113;28;20042;-78
2023/09/01 10:09:19;;;;;;;2.95;1.25;;;22.50;99.90;;;;;;6249098;28;20500;-78
2023/09/01 10:12:21;;;;;;;1.55;1.02;;;22.60;99.90;;;;;;6248698;28;20060;-78
2023/09/01 10:15:25;;;;;;;1.10;0.80;;;22.80;99.90;;;;;;6250208;28;20053;-78
2023/09/01 10:18:29;;;;;;;1.48;1.00;;;22.90;99.90;;;;;;6261611;28;20061;-79
2023/09/01 10:21:31;;;;;;;1.13;0.82;;;23.00;99.90;;;;;;6277874;28;20049;-79
2023/09/01 10:24:33;;;;;;;1.92;1.17;;;23.20;99.90;;;;;;6272473;28;20055;-78
2023/09/01 10:27:35;;;;;;;2.97;0.95;;;23.40;99.90;;;;;;6248430;28;20056;-79
2023/09/01 10:30:38;;;;;;;1.77;0.82;;;23.60;99.90;;;;;;6252437;28;20042;-79
2023/09/01 10:33:41;;;;;;;1.63;0.95;;;23.70;99.90;;;;;;6251923;28;20049;-78
2023/09/01 10:36:44;;;;;;;1.10;0.80;;;23.80;99.90;;;;;;6251548;28;20053;-78
2023/09/01 10:39:46;;;;;;;1.27;1.15;;;23.90;99.90;;;;;;6250504;28;20052;-79
2023/09/01 10:42:50;;;;;;;1.50;1.23;;;23.80;99.90;;;;;;6250132;28;20049;-79
2023/09/01 10:46:25;;;;;;;1.55;1.38;;;23.70;99.90;;;;;;6251787;28;20092;-78
2023/09/01 10:49:56;;;;;;;2.03;0.80;;;23.50;99.90;;;;;;6249519;28;20045;-78
2023/09/01 10:53:30;;;;;;;1.45;1.23;;;23.40;99.90;;;;;;6252891;28;20057;-78
2023/09/01 10:56:32;;;;;;;1.75;1.02;;;23.50;99.90;;;;;;6250503;28;20491;-78
2023/09/01 10:59:35;;;;;;;1.67;0.90;;;23.60;99.90;;;;;;6251018;28;20045;-78
2023/09/01 11:02:38;;;;;;;1.45;0.80;;;23.70;99.90;;;;;;6248713;28;20049;-79
2023/09/01 11:05:41;;;;;;;4.75;1.05;;;23.60;99.90;;;;;;6250681;28;20046;-80
2023/09/01 11:08:42;;;;;;;4.55;2.22;;;23.60;99.90;;;;;;6251503;28;20060;-80
2023/09/01 11:11:50;;;;;;;2.25;0.65;;;23.90;99.90;;;;;;6249394;28;20052;-81
2023/09/01 11:14:58;;;;;;;1.58;0.80;;;24.00;99.90;;;;;;6251350;28;20042;-79
2023/09/01 11:17:59;;;;;;;3.42;1.02;;;24.40;99.90;;;;;;6259485;28;20150;-81
2023/09/01 11:21:02;;;;;;;1.50;1.00;;;24.60;99.90;;;;;;6275329;28;20048;-79
2023/09/01 11:24:05;;;;;;;1.80;1.17;;;24.90;99.90;;;;;;6277330;28;20053;-78
2023/09/01 11:27:07;;;;;;;1.13;0.80;;;24.80;99.90;;;;;;6276870;28;20048;-81
2023/09/01 11:30:10;;;;;;;1.70;0.82;;;25.00;99.90;;;;;;6275742;28;20044;-80
2023/09/01 11:33:12;;;;;;;0.80;0.80;;;25.10;99.90;;;;;;6276596;28;20054;-80
2023/09/01 11:36:15;;;;;;;1.08;0.93;;;25.50;99.90;;;;;;6251382;28;20052;-80
2023/09/01 11:39:18;;;;;;;1.23;1.10;;;25.70;99.90;;;;;;6251965;28;20045;-80
2023/09/01 11:42:20;;;;;;;2.35;1.00;;;26.00;99.90;;;;;;6252126;28;20415;-80
2023/09/01 11:45:21;;;;;;;2.25;0.65;;;26.50;99.90;;;;;;6252572;28;20132;-79
2023/09/01 11:48:24;;;;;;;1.75;1.08;;;26.80;99.90;;;;;;6252401;28;20041;-80
2023/09/01 11:51:31;;;;;;;3.30;0.70;;;26.90;99.90;;;;;;6252212;28;20056;-79
2023/09/01 11:54:39;;;;;;;;;;;27.30;99.90;;;;;;6251917;28;20045;-79
2023/09/01 11:57:41;;;;;;;1.77;0.60;;;27.40;99.90;;;;;;6251136;28;19928;-79
2023/09/01 12:00:43;;;;;;;5.25;1.25;;;27.50;99.90;;;;;;6251092;28;20041;-79
2023/09/01 12:03:46;;;;;;;1.73;0.80;;;27.30;99.90;;;;;;6251151;28;20049;-79
2023/09/01 12:06:49;;;;;;;1.15;0.55;;;26.90;99.90;;;;;;6250422;28;20056;-81
2023/09/01 12:09:52;;;;;;;1.40;0.60;;;26.70;99.90;;;;;;6249289;28;20045;-81
2023/09/01 12:13:02;;;;;;;1.20;0.63;;;26.20;99.90;;;;;;6252336;28;20057;-79
2023/09/01 12:16:05;;;;;;;2.90;0.75;;;25.80;99.90;;;;;;6259738;28;20060;-79
2023/09/01 12:19:06;;;;;;;6.03;1.45;;;25.50;99.90;;;;;;6259068;28;20053;-79
2023/09/01 12:22:10;;;;;;;1.88;0.98;;;25.40;99.90;;;;;;6258819;28;20428;-79
2023/09/01 12:25:12;;;;;;;0.95;0.57;;;25.40;99.90;;;;;;6259397;28;20077;-80
2023/09/01 12:28:14;;;;;;;1.33;1.08;;;25.30;99.90;;;;;;6257999;28;20049;-79
2023/09/01 12:31:15;;;;;;;4.38;0.90;;;25.20;99.90;;;;;;6260235;28;20079;-80
2023/09/01 12:34:17;;;;;;;1.35;0.80;;;25.00;99.90;;;;;;6258975;28;20142;-79
2023/09/01 12:37:20;;;;;;;1.75;1.20;;;25.00;99.90;;;;;;6258523;28;20042;-79
2023/09/01 12:40:22;;;;;;;1.42;1.33;;;25.00;99.90;;;;;;6257481;28;20041;-79
2023/09/01 12:43:23;;;;;;;2.15;1.42;;;25.00;99.90;;;;;;6259336;28;20064;-79
2023/09/01 12:46:25;;;;;;;6.00;0.85;;;25.20;99.90;;;;;;6248888;28;20078;-79
2023/09/01 12:49:27;;;;;;;1.70;1.02;;;25.30;99.90;;;;;;6257239;28;20037;-79
2023/09/01 12:52:30;;;;;;;1.45;0.95;;;25.30;99.90;;;;;;6262155;28;20049;-79
2023/09/01 12:55:34;;;;;;;2.22;1.02;;;25.10;99.90;;;;;;6260911;28;20518;-79
2023/09/01 12:58:36;;;;;;;3.92;1.23;;;24.90;99.90;;;;;;6260456;28;20045;-79
2023/09/01 13:01:38;;;;;;;1.42;0.93;;;24.80;99.90;;;;;;6259747;28;20052;-79
2023/09/01 13:04:40;;;;;;;1.50;1.20;;;24.80;99.90;;;;;;6258136;28;20053;-80
2023/09/01 13:07:45;;;;;;;1.65;1.10;;;24.80;99.90;;;;;;6263713;28;20144;-79
2023/09/01 13:10:46;;;;;;;1.25;0.95;;;24.90;99.90;;;;;;6266465;28;20041;-79
2023/09/01 13:13:48;;;;;;;0.88;0.77;;;24.90;99.90;;;;;;6257821;28;20049;-79
2023/09/01 13:16:50;;;;;;;1.90;0.95;;;24.90;99.90;;;;;;6257963;28;20049;-80
2023/09/01 13:19:51;;;;;;;3.42;1.15;;;25.00;99.90;;;;;;6280773;28;20052;-81
2023/09/01 13:22:54;;;;;;;1.77;0.68;;;25.30;99.90;;;;;;6284716;28;20053;-79
2023/09/01 13:25:56;;;;;;;2.38;0.80;;;25.60;99.90;;;;;;6279532;28;20041;-80
2023/09/01 13:28:58;;;;;;;1.08;0.95;;;26.00;99.90;;;;;;6279156;28;20265;-79
2023/09/01 13:32:00;;;;;;;3.17;0.57;;;26.30;99.90;;;;;;6278380;28;20053;-79
2023/09/01 13:35:02;;;;;;;1.48;0.65;;;26.40;99.90;;;;;;6269648;28;20049;-79
2023/09/01 13:38:05;;;;;;;2.83;1.27;;;26.00;99.90;;;;;;6253915;28;20045;-79
2023/09/01 13:41:07;;;;;;;1.77;1.20;;;25.70;99.90;;;;;;6254321;28;20056;-79
2023/09/01 13:44:09;;;;;;;1.13;0.85;;;25.50;99.90;;;;;;6254474;28;20100;-79
2023/09/01 13:47:10;;;;;;;1.08;0.73;;;25.50;99.90;;;;;;6253964;28;20049;-79
2023/09/01 13:50:12;;;;;;;1.77;0.93;;;25.30;99.90;;;;;;6254422;28;20049;-79
2023/09/01 13:53:15;;;;;;;1.77;0.90;;;25.30;99.90;;;;;;6254618;28;20057;-79
2023/09/01 13:56:17;;;;;;;0.82;0.65;;;25.10;99.90;;;;;;6253584;28;20049;-79
2023/09/01 13:59:19;;;;;;;1.40;0.85;;;24.70;99.90;;;;;;6254033;28;20060;-79
2023/09/01 14:02:20;;;;;;;3.10;1.27;;;24.50;99.90;;;;;;6253474;28;20048;-79
2023/09/01 14:05:22;;;;;;;2.20;0.93;;;24.50;99.90;;;;;;6254486;28;20073;-79
2023/09/01 14:08:25;;;;;;;1.65;0.80;;;24.60;99.90;;;;;;6253190;28;20055;-79
2023/09/01 14:11:27;;;;;;;1.33;0.88;;;24.80;99.90;;;;;;6254378;28;20052;-80
2023/09/01 14:14:29;;;;;;;1.52;0.80;;;25.10;99.90;;;;;;6254210;28;20053;-79
2023/09/01 14:17:30;;;;;;;3.15;0.68;;;25.40;99.90;;;;;;6256919;28;20041;-79
2023/09/01 14:20:32;;;;;;;0.70;0.70;;;25.60;99.90;;;;;;6248525;28;20045;-79
2023/09/01 14:23:35;;;;;;;1.00;0.90;;;26.10;99.90;;;;;;6255420;28;20049;-79
2023/09/01 14:26:37;;;;;;;1.05;0.80;;;26.40;99.90;;;;;;6252937;28;20045;-77
2023/09/01 14:29:39;;;;;;;1.02;0.70;;;26.50;99.90;;;;;;6253662;28;20065;-79
2023/09/01 14:32:41;;;;;;;1.63;0.75;;;26.50;99.90;;;;;;6253283;28;20045;-78
2023/09/01 14:35:48;;;;;;;1.63;0.73;;;26.20;99.90;;;;;;6253595;28;20057;-79
2023/09/01 14:38:51;;;;;;;1.60;0.57;;;26.10;99.90;;;;;;6251650;28;20050;-79
2023/09/01 14:41:53;;;;;;;0.98;0.88;;;26.00;99.90;;;;;;6252935;28;20057;-79
2023/09/01 14:44:54;;;;;;;1.30;0.80;;;25.90;99.90;;;;;;6252912;28;20050;-78
2023/09/01 14:47:56;;;;;;;0.98;0.68;;;26.00;99.90;;;;;;6253086;28;20049;-79
2023/09/01 14:50:58;;;;;;;1.27;0.82;;;26.40;99.90;;;;;;6242456;28;20045;-78
2023/09/01 14:54:01;;;;;;;0.50;0.40;;;26.50;99.90;;;;;;6251946;28;20469;-78
2023/09/01 14:57:03;;;;;;;0.98;0.70;;;26.50;99.90;;;;;;6247971;28;20484;-77
2023/09/01 15:00:07;;;;;;;2.20;0.52;;;26.70;99.90;;;;;;6249238;28;20053;-78
2023/09/01 15:03:08;;;;;;;0.85;0.65;;;27.20;99.90;;;;;;6251018;28;20447;-79
2023/09/01 15:06:10;;;;;;;1.60;0.93;;;27.60;99.90;;;;;;6247911;28;20060;-77
2023/09/01 15:09:13;;;;;;;1.58;0.55;;;28.00;99.90;;;;;;6247366;28;20052;-79
2023/09/01 15:12:15;;;;;;;1.00;0.63;;;28.30;99.90;;;;;;6246783;28;20053;-79
2023/09/01 15:15:16;;;;;;;1.90;1.00;;;28.20;99.80;;;;;;6239483;28;20053;-79
2023/09/01 15:18:18;;;;;;;2.85;2.58;;;27.90;99.30;;;;;;6248473;28;20052;-79
2023/09/01 15:21:19;;;;;;;1.13;0.70;;;27.60;98.60;;;;;;6249477;28;20045;-79
2023/09/01 15:24:23;;;;;;;1.17;0.50;;;27.20;98.50;;;;;;6248312;28;20045;-78
2023/09/01 15:27:24;;;;;;;0.85;0.73;;;27.20;97.50;;;;;;6246323;28;20092;-76
2023/09/01 15:30:26;;;;;;;0.75;0.68;;;26.90;97.00;;;;;;6248369;28;20056;-78
2023/09/01 15:33:29;;;;;;;1.17;0.52;;;26.70;96.60;;;;;;6248775;28;20045;-77
2023/09/01 15:36:31;;;;;;;1.27;0.73;;;26.50;96.40;;;;;;6248132;28;20046;-79
2023/09/01 15:39:35;;;;;;;1.20;0.60;;;26.30;96.50;;;;;;6238728;28;20045;-78
2023/09/01 15:42:36;;;;;;;3.40;0.77;;;26.10;96.10;;;;;;6246732;28;20044;-78
2023/09/01 15:45:45;;;;;;;0.60;0.52;;;25.90;96.10;;;;;;6246527;28;20076;-78
2023/09/01 15:48:47;;;;;;;1.38;0.60;;;25.60;96.10;;;;;;6246501;28;20049;-78
2023/09/01 15:51:48;;;;;;;1.50;0.88;;;25.50;96.30;;;;;;6245625;28;20049;-77
2023/09/01 15:54:51;;;;;;;1.17;0.65;;;25.20;96.10;;;;;;6239410;28;20370;-78